Time;durP1;ratioP1;P1;durP2;ratioP2;P2;SDS_P1;SDS_P2;PMS_P1;PMS_P2;Temp;Humidity;BMP_temperature;BMP_pressure;BME280_temperature;BME280_humidity;BME280_pressure;Samples;Min_cycle;Max_cycle;Signal;HPM_P1;HPM_P2
2023/03/09 00:01:41;;;;;;;11.13;8.32;;;1.40;99.90;;;;;;4983775;28;20450;-57
2023/03/09 00:04:13;;;;;;;11.05;8.32;;;1.40;99.90;;;;;;4982561;28;20126;-58
2023/03/09 00:06:39;;;;;;;10.63;8.60;;;1.40;99.90;;;;;;4982220;28;20113;-58
2023/03/09 00:09:05;;;;;;;12.32;7.90;;;1.40;99.90;;;;;;4988673;28;20137;-57
2023/03/09 00:11:30;;;;;;;11.07;8.10;;;1.40;99.90;;;;;;5010565;28;20517;-54
2023/03/09 00:13:56;;;;;;;12.75;10.07;;;1.40;99.90;;;;;;4991073;28;20118;-57
2023/03/09 00:16:25;;;;;;;10.95;8.68;;;1.40;99.90;;;;;;4974342;28;20073;-57
2023/03/09 00:18:53;;;;;;;10.98;8.85;;;1.30;99.90;;;;;;4974106;28;20050;-57
2023/03/09 00:21:48;;;;;;;8.25;6.47;;;1.30;99.90;;;;;;4999755;28;20440;-58
2023/03/09 00:24:18;;;;;;;11.93;8.32;;;1.20;99.90;;;;;;4954827;28;20046;-57
2023/03/09 00:26:52;;;;;;;10.93;8.05;;;1.20;99.90;;;;;;4987317;28;20080;-54
2023/03/09 00:29:18;;;;;;;14.95;9.60;;;1.20;99.90;;;;;;4991486;28;20050;-57
2023/03/09 00:31:44;;;;;;;11.50;8.60;;;1.20;99.90;;;;;;4966860;28;20046;-56
2023/03/09 00:34:11;;;;;;;11.38;8.00;;;1.10;99.90;;;;;;4979521;28;20112;-58
2023/03/09 00:36:38;;;;;;;14.30;11.10;;;1.10;99.90;;;;;;4980953;28;20448;-58
2023/03/09 00:39:04;;;;;;;11.05;8.25;;;1.10;99.90;;;;;;4984303;28;20042;-57
2023/03/09 00:41:31;;;;;;;15.07;10.77;;;1.10;99.90;;;;;;4971714;28;20051;-57
2023/03/09 00:43:58;;;;;;;18.55;12.13;;;1.10;99.90;;;;;;4986621;28;20622;-57
2023/03/09 00:46:23;;;;;;;14.23;11.18;;;1.10;99.90;;;;;;4977870;28;20527;-58
2023/03/09 00:48:49;;;;;;;14.32;10.82;;;1.00;99.90;;;;;;4976286;28;20034;-57
2023/03/09 00:51:15;;;;;;;16.30;9.90;;;1.00;99.90;;;;;;4977640;28;20133;-57
2023/03/09 00:53:41;;;;;;;13.77;10.13;;;1.00;99.90;;;;;;4978169;28;20548;-57
2023/03/09 00:56:12;;;;;;;10.75;8.20;;;1.00;99.90;;;;;;4978259;28;20460;-58
2023/03/09 00:58:37;;;;;;;15.93;12.00;;;1.00;99.90;;;;;;4980591;28;20385;-58
2023/03/09 01:01:08;;;;;;;16.75;11.95;;;1.00;99.90;;;;;;4979202;28;20111;-58
2023/03/09 01:03:34;;;;;;;13.25;9.15;;;1.00;99.90;;;;;;4981378;28;20149;-57
2023/03/09 01:06:00;;;;;;;15.15;11.05;;;0.90;99.90;;;;;;4985458;28;20556;-58
2023/03/09 01:08:25;;;;;;;15.25;10.10;;;0.90;99.90;;;;;;4985769;28;20060;-57
2023/03/09 01:10:51;;;;;;;13.05;9.10;;;1.00;99.90;;;;;;4973990;28;20050;-57
2023/03/09 01:13:17;;;;;;;14.30;10.75;;;0.90;99.90;;;;;;4985641;28;20065;-56
2023/03/09 01:15:43;;;;;;;13.63;9.85;;;0.90;99.90;;;;;;4982589;28;20409;-55
2023/03/09 01:18:09;;;;;;;11.45;9.35;;;0.90;99.90;;;;;;4984476;28;20092;-58
2023/03/09 01:20:34;;;;;;;16.23;10.07;;;0.90;99.90;;;;;;4988286;28;20436;-57
2023/03/09 01:23:00;;;;;;;14.35;10.57;;;0.90;99.90;;;;;;4982221;28;20057;-57
2023/03/09 01:25:26;;;;;;;15.15;10.68;;;0.90;99.90;;;;;;4978575;28;20068;-59
2023/03/09 01:27:52;;;;;;;16.13;11.15;;;0.90;99.90;;;;;;4982054;28;20042;-58
2023/03/09 01:30:18;;;;;;;13.38;9.82;;;0.90;99.90;;;;;;4979696;28;20049;-55
2023/03/09 01:32:43;;;;;;;15.98;12.20;;;0.90;99.90;;;;;;5003320;28;20042;-54
2023/03/09 01:35:09;;;;;;;16.13;11.32;;;0.90;99.90;;;;;;4991890;28;20408;-57
2023/03/09 01:37:35;;;;;;;17.40;11.40;;;0.90;99.90;;;;;;4985291;28;20039;-56
2023/03/09 01:40:01;;;;;;;16.85;11.27;;;0.90;99.90;;;;;;4990779;28;20539;-57
2023/03/09 01:42:26;;;;;;;17.58;12.43;;;0.90;99.90;;;;;;4979487;28;20509;-58
2023/03/09 01:45:24;;;;;;;13.18;9.13;;;0.90;99.90;;;;;;4981586;28;20073;-57
2023/03/09 01:47:49;;;;;;;12.45;9.18;;;0.90;99.90;;;;;;4976856;28;20117;-56
2023/03/09 01:50:19;;;;;;;19.55;13.00;;;0.80;99.90;;;;;;4980829;28;20129;-56
2023/03/09 01:52:47;;;;;;;13.73;9.80;;;0.90;99.90;;;;;;4978127;28;20058;-56
2023/03/09 01:55:18;;;;;;;13.88;9.93;;;0.80;99.90;;;;;;4949436;28;20094;-57
2023/03/09 01:57:57;;;;;;;16.30;12.38;;;0.90;99.90;;;;;;4979690;28;20500;-58
2023/03/09 02:00:24;;;;;;;14.30;10.65;;;0.80;99.90;;;;;;4958527;28;20042;-55
2023/03/09 02:02:57;;;;;;;12.73;8.77;;;0.80;99.90;;;;;;4977116;28;20062;-55
2023/03/09 02:05:31;;;;;;;13.93;10.43;;;0.80;99.90;;;;;;4976052;28;20069;-57
2023/03/09 02:07:57;;;;;;;18.67;12.02;;;0.80;99.90;;;;;;4975863;28;20049;-57
2023/03/09 02:10:55;;;;;;;16.95;12.15;;;0.90;99.90;;;;;;4976546;28;20117;-58
2023/03/09 02:13:27;;;;;;;14.48;8.90;;;0.80;99.90;;;;;;5009465;28;20126;-57
2023/03/09 02:15:53;;;;;;;15.68;9.95;;;0.90;99.90;;;;;;4991484;28;20046;-56
2023/03/09 02:18:19;;;;;;;13.48;11.18;;;0.90;99.90;;;;;;4990668;28;20053;-54
2023/03/09 02:21:07;;;;;;;18.88;13.93;;;0.90;99.90;;;;;;4981523;28;20043;-53
2023/03/09 02:24:16;;;;;;;13.02;8.82;;;0.90;99.90;;;;;;4985059;28;20395;-54
2023/03/09 02:26:47;;;;;;;14.23;10.18;;;0.90;99.90;;;;;;4979542;28;20069;-54
2023/03/09 02:29:13;;;;;;;16.95;13.27;;;0.90;99.90;;;;;;4990259;28;20447;-56
2023/03/09 02:31:39;;;;;;;17.63;12.68;;;0.90;99.90;;;;;;4980079;28;20070;-57
2023/03/09 02:34:05;;;;;;;15.00;10.60;;;0.90;99.90;;;;;;4984126;28;20073;-53
2023/03/09 02:36:31;;;;;;;13.35;9.32;;;0.80;99.90;;;;;;4981470;28;20460;-56
2023/03/09 02:39:07;;;;;;;15.48;12.10;;;0.90;99.90;;;;;;4974909;28;20042;-53
2023/03/09 02:41:34;;;;;;;16.17;12.60;;;0.80;99.90;;;;;;5004019;28;20050;-54
2023/03/09 02:44:00;;;;;;;15.30;11.93;;;0.80;99.90;;;;;;4970414;28;20053;-54
2023/03/09 02:46:26;;;;;;;19.38;12.82;;;0.80;99.90;;;;;;4981263;28;20080;-57
2023/03/09 02:48:51;;;;;;;16.85;12.25;;;0.80;99.90;;;;;;4977093;28;20062;-58
2023/03/09 02:51:17;;;;;;;18.00;13.98;;;0.80;99.90;;;;;;4961114;28;20038;-56
2023/03/09 02:53:43;;;;;;;15.88;11.38;;;0.80;99.90;;;;;;4978367;28;20039;-59
2023/03/09 02:56:09;;;;;;;17.30;12.70;;;0.80;99.90;;;;;;4978668;28;20133;-57
2023/03/09 02:58:34;;;;;;;16.00;12.25;;;0.80;99.90;;;;;;4978598;28;20035;-58
2023/03/09 03:01:00;;;;;;;14.73;10.73;;;0.80;99.90;;;;;;4979015;28;20549;-58
2023/03/09 03:03:26;;;;;;;15.57;11.50;;;0.80;99.90;;;;;;4978966;28;20091;-57
2023/03/09 03:05:52;;;;;;;15.13;11.75;;;0.80;99.90;;;;;;4979122;28;20065;-58
2023/03/09 03:08:17;;;;;;;16.75;12.48;;;0.80;99.90;;;;;;4975840;28;20403;-59
2023/03/09 03:10:43;;;;;;;15.85;10.88;;;0.80;99.90;;;;;;4978192;28;20034;-57
2023/03/09 03:13:08;;;;;;;15.10;10.95;;;0.80;99.90;;;;;;4979807;28;20480;-57
2023/03/09 03:15:34;;;;;;;10.07;6.78;;;0.80;99.90;;;;;;4979327;28;20452;-56
2023/03/09 03:18:00;;;;;;;14.40;10.30;;;0.90;99.90;;;;;;4965493;28;20046;-59
2023/03/09 03:20:26;;;;;;;14.05;10.70;;;0.90;99.90;;;;;;4981777;28;20038;-57
2023/03/09 03:22:52;;;;;;;16.15;10.82;;;0.80;99.90;;;;;;4980598;28;20100;-58
2023/03/09 03:25:18;;;;;;;17.40;12.50;;;0.90;99.90;;;;;;4982008;28;20034;-57
2023/03/09 03:27:44;;;;;;;17.63;13.25;;;0.80;99.90;;;;;;4981179;28;20069;-54
2023/03/09 03:30:11;;;;;;;18.17;13.15;;;0.80;99.90;;;;;;4980350;28;20122;-54
2023/03/09 03:32:37;;;;;;;17.67;12.60;;;0.80;99.90;;;;;;4983358;28;20042;-56
2023/03/09 03:35:03;;;;;;;18.35;12.65;;;0.80;99.90;;;;;;4991778;28;20038;-53
2023/03/09 03:37:29;;;;;;;17.73;13.38;;;0.90;99.90;;;;;;4989359;28;20392;-56
2023/03/09 03:39:55;;;;;;;14.43;9.65;;;0.80;99.90;;;;;;4991746;28;20459;-57
2023/03/09 03:42:20;;;;;;;15.88;10.85;;;0.80;99.90;;;;;;4991592;28;20134;-54
2023/03/09 03:44:46;;;;;;;19.00;11.93;;;0.90;99.90;;;;;;4987963;28;20046;-54
2023/03/09 03:47:12;;;;;;;18.50;12.85;;;0.90;99.90;;;;;;4983886;28;20099;-54
2023/03/09 03:49:37;;;;;;;19.35;14.15;;;0.90;99.90;;;;;;4985522;28;20039;-53
2023/03/09 03:52:03;;;;;;;17.42;11.90;;;0.90;99.90;;;;;;4985134;28;20114;-57
2023/03/09 03:54:29;;;;;;;19.13;14.80;;;0.90;99.90;;;;;;4983758;28;20038;-58
2023/03/09 03:56:55;;;;;;;19.08;14.85;;;0.90;99.90;;;;;;4982050;28;20030;-59
2023/03/09 03:59:20;;;;;;;16.33;11.75;;;0.90;99.90;;;;;;4982296;28;20043;-58
2023/03/09 04:01:46;;;;;;;27.55;18.13;;;0.90;99.90;;;;;;4982503;28;20051;-58
2023/03/09 04:04:12;;;;;;;19.60;13.95;;;1.00;99.90;;;;;;4982731;28;20042;-58
2023/03/09 04:06:37;;;;;;;22.08;15.70;;;1.00;99.90;;;;;;4984244;28;20053;-59
2023/03/09 04:09:04;;;;;;;21.48;15.40;;;0.90;99.90;;;;;;4984419;28;20134;-58
2023/03/09 04:11:30;;;;;;;23.95;15.95;;;1.00;99.90;;;;;;4979684;28;20488;-59
2023/03/09 04:13:56;;;;;;;23.27;16.45;;;1.00;99.90;;;;;;4984462;28;20053;-57
2023/03/09 04:16:22;;;;;;;26.42;17.90;;;1.00;99.90;;;;;;4987110;28;20385;-57
2023/03/09 04:18:47;;;;;;;24.45;18.13;;;1.00;99.90;;;;;;4989544;28;20111;-57
2023/03/09 04:21:13;;;;;;;21.50;15.75;;;1.00;99.90;;;;;;4988601;28;20121;-58
2023/03/09 04:23:39;;;;;;;20.88;12.75;;;1.00;99.90;;;;;;4984977;28;20042;-57
2023/03/09 04:26:05;;;;;;;24.08;16.70;;;1.00;99.90;;;;;;4984690;28;20038;-58
2023/03/09 04:28:31;;;;;;;22.92;16.33;;;1.00;99.90;;;;;;4984022;28;20042;-58
2023/03/09 04:30:57;;;;;;;21.77;16.85;;;1.00;99.90;;;;;;4982985;28;21908;-59
2023/03/09 04:33:23;;;;;;;24.08;15.05;;;1.00;99.90;;;;;;4982979;28;20442;-58
2023/03/09 04:35:49;;;;;;;22.88;15.18;;;1.00;99.90;;;;;;4968034;28;20080;-58
2023/03/09 04:38:15;;;;;;;22.13;14.73;;;1.00;99.90;;;;;;4985258;28;20465;-56
2023/03/09 04:40:41;;;;;;;22.60;15.38;;;1.00;99.90;;;;;;4984453;28;20136;-58
2023/03/09 04:43:07;;;;;;;22.73;16.38;;;1.00;99.90;;;;;;4967829;28;20156;-58
2023/03/09 04:45:33;;;;;;;24.95;17.17;;;1.00;99.90;;;;;;4983463;28;20060;-58
2023/03/09 04:47:59;;;;;;;24.10;16.73;;;1.00;99.90;;;;;;4978826;28;20403;-58
2023/03/09 04:50:25;;;;;;;20.60;13.68;;;1.00;99.90;;;;;;4963002;28;20042;-54
2023/03/09 04:52:51;;;;;;;21.02;13.13;;;1.00;99.90;;;;;;4981539;28;20042;-57
2023/03/09 04:55:17;;;;;;;23.73;17.88;;;1.00;99.90;;;;;;4984502;28;21080;-57
2023/03/09 04:57:43;;;;;;;25.83;17.27;;;1.00;99.90;;;;;;4984165;28;20050;-53
2023/03/09 05:00:10;;;;;;;22.85;16.80;;;1.00;99.90;;;;;;4984564;28;20050;-54
2023/03/09 05:02:37;;;;;;;23.83;17.67;;;0.90;99.90;;;;;;4947406;28;20039;-58
2023/03/09 05:05:03;;;;;;;24.15;17.55;;;0.90;99.90;;;;;;4945419;28;20051;-57
2023/03/09 05:07:29;;;;;;;22.23;15.80;;;0.90;99.90;;;;;;4948208;28;20053;-58
2023/03/09 05:09:54;;;;;;;21.00;14.40;;;0.90;99.90;;;;;;4947869;28;20142;-58
2023/03/09 05:12:20;;;;;;;23.33;15.18;;;0.90;99.90;;;;;;4950648;28;20437;-58
2023/03/09 05:14:45;;;;;;;22.73;17.10;;;0.90;99.90;;;;;;4948407;28;20054;-57
2023/03/09 05:17:11;;;;;;;23.42;16.50;;;0.90;99.90;;;;;;4948606;28;20054;-56
2023/03/09 05:19:37;;;;;;;23.90;17.35;;;0.90;99.90;;;;;;4949663;28;20043;-58
2023/03/09 05:22:03;;;;;;;20.45;14.65;;;0.80;99.90;;;;;;4947085;28;20055;-57
2023/03/09 05:24:29;;;;;;;25.63;18.58;;;0.80;99.90;;;;;;4965448;28;20096;-54
2023/03/09 05:26:55;;;;;;;23.48;15.75;;;0.80;99.90;;;;;;4953554;28;20122;-57
2023/03/09 05:29:21;;;;;;;26.15;18.08;;;0.80;99.90;;;;;;4943736;28;20110;-58
2023/03/09 05:31:46;;;;;;;23.92;16.55;;;0.80;99.90;;;;;;4947450;28;20059;-58
2023/03/09 05:34:12;;;;;;;22.13;15.63;;;0.80;99.90;;;;;;4942180;29;20082;-57
2023/03/09 05:36:38;;;;;;;21.92;15.68;;;0.80;99.90;;;;;;4950805;28;20474;-57
2023/03/09 05:39:04;;;;;;;23.90;15.52;;;0.80;99.90;;;;;;4950772;28;20051;-58
2023/03/09 05:41:30;;;;;;;24.63;17.45;;;0.80;99.90;;;;;;4951298;28;20070;-54
2023/03/09 05:43:59;;;;;;;21.80;14.10;;;0.80;99.90;;;;;;4957613;28;20495;-57
2023/03/09 05:46:24;;;;;;;22.23;14.50;;;0.80;99.90;;;;;;4948023;29;20054;-57
2023/03/09 05:48:50;;;;;;;22.95;15.38;;;0.80;99.90;;;;;;4945604;28;20040;-58
2023/03/09 05:51:16;;;;;;;22.67;16.23;;;0.80;99.90;;;;;;4950600;28;20496;-56
2023/03/09 05:53:41;;;;;;;22.38;16.23;;;0.80;99.90;;;;;;4970899;28;20054;-53
2023/03/09 05:56:07;;;;;;;22.95;16.85;;;0.80;99.90;;;;;;4954806;28;20406;-54
2023/03/09 05:58:34;;;;;;;22.50;15.10;;;0.80;99.90;;;;;;4951374;28;20043;-54
2023/03/09 06:01:01;;;;;;;22.85;17.35;;;0.80;99.90;;;;;;4954691;28;20116;-56
2023/03/09 06:03:27;;;;;;;16.95;11.27;;;0.80;99.90;;;;;;4977004;28;20968;-57
2023/03/09 06:06:04;;;;;;;22.20;15.75;;;0.80;99.90;;;;;;4985200;28;20063;-55
2023/03/09 06:08:30;;;;;;;20.98;15.30;;;0.80;99.90;;;;;;4975964;28;20460;-56
2023/03/09 06:10:59;;;;;;;21.08;14.70;;;0.80;99.90;;;;;;4976402;28;20042;-57
2023/03/09 06:13:26;;;;;;;22.67;16.17;;;0.70;99.90;;;;;;4957770;28;20455;-57
2023/03/09 06:15:51;;;;;;;23.40;16.75;;;0.80;99.90;;;;;;4978253;28;20050;-57
2023/03/09 06:18:17;;;;;;;21.80;15.27;;;0.80;99.90;;;;;;4979163;28;20396;-58
2023/03/09 06:20:44;;;;;;;21.45;16.40;;;0.80;99.90;;;;;;4981626;28;20125;-58
2023/03/09 06:23:10;;;;;;;22.08;14.82;;;0.80;99.90;;;;;;4979492;28;20049;-59
2023/03/09 06:25:39;;;;;;;18.85;12.60;;;0.80;99.90;;;;;;4980390;28;20043;-58
2023/03/09 06:28:05;;;;;;;22.80;16.08;;;0.80;99.90;;;;;;4978749;28;20428;-56
2023/03/09 06:30:31;;;;;;;22.13;16.42;;;0.90;99.90;;;;;;4981364;28;20049;-58
2023/03/09 06:32:56;;;;;;;25.27;16.80;;;0.90;99.90;;;;;;4984347;28;20047;-57
2023/03/09 06:35:25;;;;;;;24.77;18.00;;;1.00;99.90;;;;;;4978031;28;20070;-58
2023/03/09 06:37:51;;;;;;;25.63;17.05;;;1.00;99.90;;;;;;4979361;28;20096;-58
2023/03/09 06:40:17;;;;;;;26.33;17.45;;;1.00;99.90;;;;;;4979333;28;20034;-57
2023/03/09 06:42:45;;;;;;;24.75;17.60;;;1.00;99.90;;;;;;4978897;28;20038;-59
2023/03/09 06:45:10;;;;;;;21.10;14.68;;;1.00;99.90;;;;;;4980035;28;20040;-58
2023/03/09 06:47:36;;;;;;;24.30;16.63;;;1.00;99.90;;;;;;4982041;28;20038;-57
2023/03/09 06:50:03;;;;;;;23.05;15.52;;;1.10;99.90;;;;;;4986858;28;20511;-57
2023/03/09 06:52:28;;;;;;;24.95;17.23;;;1.00;99.90;;;;;;4993916;28;20078;-58
2023/03/09 06:54:54;;;;;;;24.73;17.20;;;1.10;99.90;;;;;;4982157;28;20465;-58
2023/03/09 06:57:19;;;;;;;25.55;18.20;;;1.10;99.90;;;;;;4991050;28;20031;-57
2023/03/09 06:59:45;;;;;;;22.45;16.83;;;1.10;99.90;;;;;;4989241;28;20076;-57
2023/03/09 07:02:12;;;;;;;24.13;17.88;;;1.10;99.90;;;;;;4989239;28;20050;-57
2023/03/09 07:04:37;;;;;;;23.33;16.55;;;1.10;99.90;;;;;;4987648;28;20043;-57
2023/03/09 07:07:03;;;;;;;25.63;17.60;;;1.10;99.90;;;;;;4982093;28;20047;-55
2023/03/09 07:09:31;;;;;;;25.00;18.08;;;1.20;99.90;;;;;;4980073;28;20046;-58
2023/03/09 07:11:58;;;;;;;26.20;20.08;;;1.20;99.90;;;;;;4977040;28;20058;-55
2023/03/09 07:14:24;;;;;;;21.85;15.20;;;1.30;99.90;;;;;;4978872;28;20424;-56
2023/03/09 07:16:54;;;;;;;22.45;16.13;;;1.30;99.90;;;;;;4979099;28;20119;-58
2023/03/09 07:19:20;;;;;;;24.20;18.70;;;1.40;99.90;;;;;;4980162;28;20110;-58
2023/03/09 07:21:46;;;;;;;23.17;17.27;;;1.50;99.90;;;;;;4982420;28;20458;-57
2023/03/09 07:24:12;;;;;;;26.90;19.02;;;1.50;99.90;;;;;;4983053;28;20046;-57
2023/03/09 07:26:37;;;;;;;26.70;21.00;;;1.60;99.90;;;;;;4981631;28;20400;-57
2023/03/09 07:29:03;;;;;;;26.52;19.55;;;1.60;99.90;;;;;;4981613;28;20047;-57
2023/03/09 07:31:29;;;;;;;25.98;18.15;;;1.60;99.90;;;;;;4979270;28;20043;-58
2023/03/09 07:33:59;;;;;;;24.52;18.30;;;1.60;99.90;;;;;;4976136;28;20050;-58
2023/03/09 07:36:25;;;;;;;28.60;20.77;;;1.60;99.90;;;;;;4992059;28;20565;-59
2023/03/09 07:38:51;;;;;;;24.70;17.23;;;1.60;99.90;;;;;;4974347;28;20507;-57
2023/03/09 07:41:17;;;;;;;25.67;19.02;;;1.70;99.90;;;;;;4992853;28;20080;-58
2023/03/09 07:43:43;;;;;;;23.98;18.52;;;1.60;99.90;;;;;;4990716;28;20046;-57
2023/03/09 07:46:13;;;;;;;24.63;18.80;;;1.70;99.90;;;;;;4992153;28;20452;-59
2023/03/09 07:48:39;;;;;;;26.77;19.15;;;1.70;99.90;;;;;;4991691;28;20115;-58
2023/03/09 07:51:06;;;;;;;26.00;18.23;;;1.80;99.90;;;;;;4991956;28;20408;-58
2023/03/09 07:53:33;;;;;;;19.38;12.77;;;1.80;99.90;;;;;;4992036;28;20092;-57
2023/03/09 07:56:03;;;;;;;24.73;18.77;;;1.80;99.90;;;;;;4991992;28;20129;-59
2023/03/09 07:58:30;;;;;;;25.50;18.27;;;1.80;99.90;;;;;;4991964;28;20121;-57
2023/03/09 08:00:56;;;;;;;24.83;17.58;;;1.80;99.90;;;;;;4983195;28;20043;-59
2023/03/09 08:03:22;;;;;;;26.88;20.38;;;1.80;99.90;;;;;;4980915;28;20055;-58
2023/03/09 08:05:49;;;;;;;25.52;19.00;;;1.90;99.90;;;;;;4981436;28;20126;-57
2023/03/09 08:08:15;;;;;;;24.48;19.13;;;1.80;99.90;;;;;;4983329;28;20452;-56
2023/03/09 08:10:47;;;;;;;25.70;18.85;;;1.90;99.90;;;;;;4987368;28;20147;-56
2023/03/09 08:13:13;;;;;;;24.92;18.60;;;1.90;99.90;;;;;;4990496;28;20070;-57
2023/03/09 08:15:39;;;;;;;24.58;18.60;;;2.00;99.90;;;;;;4986398;28;20661;-55
2023/03/09 08:18:05;;;;;;;23.48;18.52;;;2.00;99.90;;;;;;4987518;28;20046;-58
2023/03/09 08:20:31;;;;;;;24.50;18.45;;;1.90;99.90;;;;;;4981007;28;20369;-59
2023/03/09 08:22:57;;;;;;;26.02;18.02;;;2.00;99.90;;;;;;4979068;28;20065;-58
2023/03/09 08:25:22;;;;;;;24.95;19.38;;;2.00;99.90;;;;;;4973928;28;20050;-59
2023/03/09 08:27:48;;;;;;;22.63;17.35;;;2.00;99.90;;;;;;4981113;28;20042;-58
2023/03/09 08:30:19;;;;;;;24.92;20.30;;;2.00;99.90;;;;;;4963158;28;20172;-58
2023/03/09 08:32:47;;;;;;;24.67;17.88;;;2.10;99.90;;;;;;4976191;28;20378;-58
2023/03/09 08:35:17;;;;;;;24.77;19.15;;;2.10;99.90;;;;;;4981366;28;20053;-60
2023/03/09 08:37:43;;;;;;;24.55;19.33;;;2.20;99.90;;;;;;4980497;28;20173;-59
2023/03/09 08:40:09;;;;;;;24.13;19.25;;;2.30;99.90;;;;;;4980599;28;20519;-56
2023/03/09 08:42:35;;;;;;;25.15;18.80;;;2.30;99.90;;;;;;4962837;28;20342;-58
2023/03/09 08:45:01;;;;;;;21.02;16.25;;;2.30;99.90;;;;;;4981612;28;20043;-58
2023/03/09 08:47:27;;;;;;;26.38;19.60;;;2.30;99.90;;;;;;4990541;28;20036;-59
2023/03/09 08:49:52;;;;;;;23.13;17.92;;;2.40;99.90;;;;;;4982973;28;20074;-60
2023/03/09 08:52:18;;;;;;;23.48;17.27;;;2.40;99.90;;;;;;4985880;28;20129;-57
2023/03/09 08:54:45;;;;;;;23.52;18.65;;;2.50;99.90;;;;;;4987644;28;20436;-57
2023/03/09 08:57:11;;;;;;;22.20;16.00;;;2.60;99.90;;;;;;4965526;28;20046;-58
2023/03/09 08:59:37;;;;;;;22.52;18.05;;;2.60;99.90;;;;;;4982526;28;20054;-59
2023/03/09 09:02:03;;;;;;;22.60;17.13;;;2.60;99.90;;;;;;4981510;28;20095;-58
2023/03/09 09:04:28;;;;;;;21.50;16.63;;;2.50;99.90;;;;;;4981160;28;20180;-56
2023/03/09 09:06:54;;;;;;;23.55;18.80;;;2.50;99.90;;;;;;4976433;28;20397;-58
2023/03/09 09:09:20;;;;;;;23.63;18.63;;;2.60;99.90;;;;;;4981382;28;20441;-55
2023/03/09 09:11:46;;;;;;;24.38;19.02;;;2.70;99.90;;;;;;4984443;28;20042;-55
2023/03/09 09:14:12;;;;;;;19.98;16.25;;;2.80;99.90;;;;;;4981447;28;20051;-57
2023/03/09 09:16:37;;;;;;;22.10;17.65;;;2.80;99.90;;;;;;4979888;28;20062;-56
2023/03/09 09:19:03;;;;;;;19.88;16.63;;;2.90;99.90;;;;;;4977637;28;20088;-55
2023/03/09 09:21:29;;;;;;;20.67;16.08;;;2.90;99.90;;;;;;4979992;28;20166;-57
2023/03/09 09:23:55;;;;;;;19.75;16.08;;;2.90;99.90;;;;;;4986019;28;20046;-56
2023/03/09 09:26:20;;;;;;;20.85;16.75;;;2.90;99.90;;;;;;4979083;28;20054;-54
2023/03/09 09:28:46;;;;;;;19.17;14.00;;;3.00;99.90;;;;;;4986654;28;20469;-55
2023/03/09 09:31:16;;;;;;;22.00;17.17;;;2.90;99.90;;;;;;4982705;28;20042;-56
2023/03/09 09:33:42;;;;;;;21.50;17.40;;;3.00;99.90;;;;;;4961241;28;20095;-57
2023/03/09 09:36:14;;;;;;;18.90;14.88;;;3.10;99.90;;;;;;4962944;28;20042;-56
2023/03/09 09:38:42;;;;;;;21.08;16.52;;;3.10;99.90;;;;;;4979985;28;20082;-58
2023/03/09 09:41:11;;;;;;;22.83;17.87;;;3.10;99.90;;;;;;4982218;28;20046;-56
2023/03/09 09:43:38;;;;;;;23.95;17.42;;;3.10;99.90;;;;;;4980402;28;20388;-56
2023/03/09 09:46:05;;;;;;;23.33;17.88;;;3.10;99.90;;;;;;4978934;28;20492;-58
2023/03/09 09:48:32;;;;;;;21.10;17.02;;;3.20;99.90;;;;;;4980352;28;20041;-57
2023/03/09 09:51:36;;;;;;;20.65;16.50;;;3.10;99.90;;;;;;4973351;28;20050;-59
2023/03/09 09:54:21;;;;;;;18.95;15.10;;;3.20;99.90;;;;;;4979642;28;20097;-57
2023/03/09 09:56:50;;;;;;;20.70;16.63;;;3.10;99.90;;;;;;4977156;28;20050;-58
2023/03/09 09:59:35;;;;;;;19.25;15.93;;;3.10;99.90;;;;;;4960048;28;20043;-57
2023/03/09 10:02:10;;;;;;;23.95;15.77;;;3.10;99.90;;;;;;4981966;28;20078;-58
2023/03/09 10:04:48;;;;;;;21.15;17.77;;;3.10;99.90;;;;;;4976305;28;20436;-56
2023/03/09 10:07:16;;;;;;;20.30;15.75;;;3.10;99.90;;;;;;4979194;28;20074;-58
2023/03/09 10:09:48;;;;;;;;;;;3.10;99.90;;;;;;4981221;28;20080;-56
2023/03/09 10:12:16;;;;;;;19.67;16.42;;;3.10;99.90;;;;;;4975048;28;20016;-58
2023/03/09 10:14:50;;;;;;;19.80;16.17;;;3.20;99.90;;;;;;4962124;28;20377;-58
2023/03/09 10:17:23;;;;;;;22.02;17.13;;;3.20;99.90;;;;;;4976930;28;20100;-57
2023/03/09 10:19:50;;;;;;;19.80;16.48;;;3.20;99.90;;;;;;4980411;28;20046;-57
2023/03/09 10:22:25;;;;;;;24.02;17.73;;;3.30;99.90;;;;;;4984651;28;20050;-57
2023/03/09 10:24:53;;;;;;;21.17;16.92;;;3.40;99.90;;;;;;4966415;28;20070;-53
2023/03/09 10:27:40;;;;;;;22.13;16.45;;;3.40;99.90;;;;;;4983084;28;20087;-57
2023/03/09 10:30:33;;;;;;;20.08;16.33;;;3.40;99.90;;;;;;4967151;28;20054;-56
2023/03/09 10:33:43;;;;;;;21.17;16.77;;;3.40;99.90;;;;;;4984279;28;20086;-57
2023/03/09 10:36:22;;;;;;;21.13;16.98;;;3.40;99.90;;;;;;4985301;28;20396;-57
2023/03/09 10:38:50;;;;;;;23.23;17.52;;;3.40;99.90;;;;;;4983393;28;20046;-56
2023/03/09 10:41:19;;;;;;;20.48;16.95;;;3.30;99.90;;;;;;4982546;28;20415;-58
2023/03/09 10:43:46;;;;;;;22.33;17.77;;;3.30;99.90;;;;;;4983271;28;20039;-58
2023/03/09 10:46:24;;;;;;;21.95;17.48;;;3.40;99.90;;;;;;4983270;28;20482;-58
2023/03/09 10:49:14;;;;;;;20.58;17.30;;;3.40;99.90;;;;;;4986365;28;20517;-58
2023/03/09 10:52:04;;;;;;;22.40;17.63;;;3.50;99.90;;;;;;4984033;28;20043;-59
2023/03/09 10:54:33;;;;;;;22.13;17.77;;;3.60;99.90;;;;;;4982754;28;20046;-57
2023/03/09 10:56:58;;;;;;;20.90;16.35;;;3.60;99.90;;;;;;4983156;28;20083;-56
2023/03/09 10:59:26;;;;;;;21.50;17.20;;;3.70;99.90;;;;;;4980651;28;20051;-58
2023/03/09 11:01:54;;;;;;;;;;;3.80;99.90;;;;;;4985540;28;20054;-58
2023/03/09 11:04:25;;;;;;;22.02;17.50;;;3.90;99.90;;;;;;4983397;28;20284;-58
2023/03/09 11:06:57;;;;;;;22.17;18.13;;;3.90;99.90;;;;;;4983452;28;20042;-57
2023/03/09 11:09:44;;;;;;;22.38;18.23;;;3.90;99.90;;;;;;4981085;28;20492;-53
2023/03/09 11:12:46;;;;;;;22.80;18.20;;;3.90;99.90;;;;;;4984137;28;20078;-58
2023/03/09 11:15:15;;;;;;;17.63;12.68;;;4.00;99.90;;;;;;4999809;28;20051;-59
2023/03/09 11:17:41;;;;;;;22.77;18.27;;;3.90;99.90;;;;;;4976001;28;20054;-57
2023/03/09 11:20:38;;;;;;;22.85;18.60;;;3.80;99.90;;;;;;4995262;28;20038;-56
2023/03/09 11:23:34;;;;;;;24.25;18.73;;;3.70;99.90;;;;;;4994135;28;20058;-59
2023/03/09 11:26:25;;;;;;;19.88;17.00;;;3.70;99.90;;;;;;4999621;28;20428;-58
2023/03/09 11:28:57;;;;;;;22.05;16.83;;;3.60;99.90;;;;;;4992479;28;20049;-56
2023/03/09 11:31:29;;;;;;;21.25;16.45;;;3.70;99.90;;;;;;4993140;28;20069;-58
2023/03/09 11:33:57;;;;;;;19.48;15.02;;;3.60;99.90;;;;;;4980086;28;20117;-59
2023/03/09 11:36:32;;;;;;;21.38;17.45;;;3.60;99.90;;;;;;4995995;28;20094;-60
2023/03/09 11:39:03;;;;;;;21.80;17.95;;;3.60;99.90;;;;;;4974883;28;20058;-55
2023/03/09 11:41:32;;;;;;;20.38;15.93;;;3.60;99.90;;;;;;4997351;28;20456;-55
2023/03/09 11:44:20;;;;;;;20.77;16.90;;;3.80;99.90;;;;;;4999225;28;20096;-56
2023/03/09 11:46:46;;;;;;;20.83;16.70;;;3.70;99.90;;;;;;4994040;28;20050;-55
2023/03/09 11:49:18;;;;;;;22.02;17.65;;;3.70;99.90;;;;;;4968781;28;20069;-59
2023/03/09 11:51:53;;;;;;;21.75;17.05;;;3.80;99.90;;;;;;4982565;28;20034;-56
2023/03/09 11:54:27;;;;;;;21.58;18.27;;;3.70;99.90;;;;;;4995091;28;20031;-57
2023/03/09 11:56:54;;;;;;;22.65;17.98;;;3.80;99.90;;;;;;4984573;28;20039;-59
2023/03/09 11:59:40;;;;;;;22.80;18.23;;;3.80;99.90;;;;;;4982317;28;20134;-58
2023/03/09 12:02:23;;;;;;;20.42;16.98;;;3.70;99.90;;;;;;4982906;28;20081;-59
2023/03/09 12:04:51;;;;;;;21.30;17.52;;;3.70;99.90;;;;;;4980123;28;20501;-58
2023/03/09 12:07:23;;;;;;;24.42;19.38;;;3.70;99.90;;;;;;4982903;28;20069;-59
2023/03/09 12:09:54;;;;;;;21.30;17.45;;;3.80;99.90;;;;;;4980548;28;20053;-56
2023/03/09 12:12:31;;;;;;;20.75;16.80;;;3.80;99.90;;;;;;4964258;28;20038;-58
2023/03/09 12:15:04;;;;;;;22.02;17.38;;;3.80;99.90;;;;;;4964643;28;22009;-58
2023/03/09 12:17:42;;;;;;;21.77;17.48;;;3.80;99.90;;;;;;4981441;28;20184;-58
2023/03/09 12:20:25;;;;;;;19.55;16.27;;;3.80;99.90;;;;;;4986489;28;20069;-60
2023/03/09 12:22:51;;;;;;;22.08;17.55;;;4.00;99.90;;;;;;4982288;28;20137;-60
2023/03/09 12:25:22;;;;;;;22.25;17.58;;;4.10;99.90;;;;;;4981556;28;20121;-57
2023/03/09 12:27:52;;;;;;;21.77;17.52;;;4.00;99.90;;;;;;4982075;28;20129;-58
2023/03/09 12:30:24;;;;;;;20.58;16.60;;;4.00;99.90;;;;;;4980923;28;20039;-58
2023/03/09 12:32:50;;;;;;;22.23;17.45;;;4.10;99.90;;;;;;4965355;28;20382;-58
2023/03/09 12:35:21;;;;;;;20.83;17.73;;;4.20;99.90;;;;;;4987194;28;20049;-57
2023/03/09 12:38:05;;;;;;;22.92;17.77;;;4.40;99.90;;;;;;4972657;28;20046;-59
2023/03/09 12:40:38;;;;;;;21.42;17.77;;;4.30;99.90;;;;;;4986035;28;20042;-58
2023/03/09 12:43:15;;;;;;;21.92;17.65;;;4.50;99.90;;;;;;4980528;28;20396;-59
2023/03/09 12:45:43;;;;;;;23.65;19.35;;;4.60;99.90;;;;;;4982168;28;20529;-59
2023/03/09 12:48:20;;;;;;;24.70;19.60;;;4.60;99.90;;;;;;4981891;28;20069;-59